sensor_id;sensor_type;location;lat;lon;timestamp;P1;durP1;ratioP1;P2;durP2;ratioP2
20711;SDS011;10517;50.742;4.224;2023-05-07T00:02:21;7.03;;;3.22;;
20711;SDS011;10517;50.742;4.224;2023-05-07T00:04:47;9.20;;;2.85;;
20711;SDS011;10517;50.742;4.224;2023-05-07T00:07:13;5.60;;;2.40;;
20711;SDS011;10517;50.742;4.224;2023-05-07T00:09:39;5.50;;;2.33;;
20711;SDS011;10517;50.742;4.224;2023-05-07T00:12:05;4.22;;;2.92;;
20711;SDS011;10517;50.742;4.224;2023-05-07T00:14:31;7.22;;;2.45;;
20711;SDS011;10517;50.742;4.224;2023-05-07T00:16:57;8.63;;;2.35;;
20711;SDS011;10517;50.742;4.224;2023-05-07T00:19:22;3.72;;;2.25;;
20711;SDS011;10517;50.742;4.224;2023-05-07T00:21:48;5.13;;;2.58;;
20711;SDS011;10517;50.742;4.224;2023-05-07T00:24:14;6.70;;;2.45;;
20711;SDS011;10517;50.742;4.224;2023-05-07T00:26:39;4.78;;;2.25;;
20711;SDS011;10517;50.742;4.224;2023-05-07T00:29:05;4.50;;;2.33;;
20711;SDS011;10517;50.742;4.224;2023-05-07T00:31:31;6.00;;;2.45;;
20711;SDS011;10517;50.742;4.224;2023-05-07T00:33:56;4.18;;;2.42;;
20711;SDS011;10517;50.742;4.224;2023-05-07T00:36:22;4.88;;;2.35;;
20711;SDS011;10517;50.742;4.224;2023-05-07T00:38:47;6.70;;;2.47;;
20711;SDS011;10517;50.742;4.224;2023-05-07T00:41:13;7.80;;;2.28;;
20711;SDS011;10517;50.742;4.224;2023-05-07T00:43:38;8.98;;;2.50;;
20711;SDS011;10517;50.742;4.224;2023-05-07T00:46:04;7.40;;;2.53;;
20711;SDS011;10517;50.742;4.224;2023-05-07T00:48:30;2.47;;;2.10;;
20711;SDS011;10517;50.742;4.224;2023-05-07T00:50:56;3.97;;;2.30;;
20711;SDS011;10517;50.742;4.224;2023-05-07T00:53:22;5.97;;;2.50;;
20711;SDS011;10517;50.742;4.224;2023-05-07T00:55:48;8.35;;;2.20;;
20711;SDS011;10517;50.742;4.224;2023-05-07T00:58:13;4.43;;;2.67;;
20711;SDS011;10517;50.742;4.224;2023-05-07T01:00:39;7.60;;;2.17;;
20711;SDS011;10517;50.742;4.224;2023-05-07T01:03:05;8.32;;;3.08;;
20711;SDS011;10517;50.742;4.224;2023-05-07T01:05:31;6.47;;;2.13;;
20711;SDS011;10517;50.742;4.224;2023-05-07T01:07:57;9.00;;;2.63;;
20711;SDS011;10517;50.742;4.224;2023-05-07T01:10:23;3.38;;;2.40;;
20711;SDS011;10517;50.742;4.224;2023-05-07T01:12:49;7.93;;;2.45;;
20711;SDS011;10517;50.742;4.224;2023-05-07T01:15:15;4.70;;;2.15;;
20711;SDS011;10517;50.742;4.224;2023-05-07T01:17:42;8.18;;;2.25;;
20711;SDS011;10517;50.742;4.224;2023-05-07T01:20:08;6.25;;;2.00;;
20711;SDS011;10517;50.742;4.224;2023-05-07T01:22:39;5.60;;;3.20;;
20711;SDS011;10517;50.742;4.224;2023-05-07T01:25:06;10.98;;;2.33;;
20711;SDS011;10517;50.742;4.224;2023-05-07T01:27:33;4.57;;;2.20;;
20711;SDS011;10517;50.742;4.224;2023-05-07T01:30:00;5.35;;;2.65;;
20711;SDS011;10517;50.742;4.224;2023-05-07T01:32:33;6.05;;;3.28;;
20711;SDS011;10517;50.742;4.224;2023-05-07T01:35:14;4.20;;;2.38;;
20711;SDS011;10517;50.742;4.224;2023-05-07T01:37:44;6.57;;;2.35;;
20711;SDS011;10517;50.742;4.224;2023-05-07T01:40:14;5.22;;;2.30;;
20711;SDS011;10517;50.742;4.224;2023-05-07T01:42:41;6.80;;;2.60;;
20711;SDS011;10517;50.742;4.224;2023-05-07T01:45:08;4.85;;;2.08;;
20711;SDS011;10517;50.742;4.224;2023-05-07T01:47:35;5.00;;;3.38;;
20711;SDS011;10517;50.742;4.224;2023-05-07T01:50:02;5.57;;;3.30;;
20711;SDS011;10517;50.742;4.224;2023-05-07T01:52:29;5.35;;;2.60;;
20711;SDS011;10517;50.742;4.224;2023-05-07T01:54:55;7.13;;;2.28;;
20711;SDS011;10517;50.742;4.224;2023-05-07T01:57:20;4.32;;;2.03;;
20711;SDS011;10517;50.742;4.224;2023-05-07T01:59:46;9.95;;;2.90;;
20711;SDS011;10517;50.742;4.224;2023-05-07T02:02:11;5.43;;;2.88;;
20711;SDS011;10517;50.742;4.224;2023-05-07T02:04:37;5.18;;;2.42;;
20711;SDS011;10517;50.742;4.224;2023-05-07T02:07:03;8.23;;;2.25;;
20711;SDS011;10517;50.742;4.224;2023-05-07T02:09:29;4.25;;;2.00;;
20711;SDS011;10517;50.742;4.224;2023-05-07T02:11:55;4.65;;;2.22;;
20711;SDS011;10517;50.742;4.224;2023-05-07T02:14:20;4.18;;;2.20;;
20711;SDS011;10517;50.742;4.224;2023-05-07T02:16:46;5.68;;;2.00;;
20711;SDS011;10517;50.742;4.224;2023-05-07T02:19:12;4.55;;;2.63;;
20711;SDS011;10517;50.742;4.224;2023-05-07T02:21:37;7.43;;;2.90;;
20711;SDS011;10517;50.742;4.224;2023-05-07T02:24:03;6.90;;;2.53;;
20711;SDS011;10517;50.742;4.224;2023-05-07T02:26:29;7.05;;;2.47;;
20711;SDS011;10517;50.742;4.224;2023-05-07T02:28:54;3.25;;;2.50;;
20711;SDS011;10517;50.742;4.224;2023-05-07T02:31:20;6.78;;;2.30;;
20711;SDS011;10517;50.742;4.224;2023-05-07T02:33:46;5.45;;;2.63;;
20711;SDS011;10517;50.742;4.224;2023-05-07T02:36:11;3.90;;;2.72;;
20711;SDS011;10517;50.742;4.224;2023-05-07T02:38:37;9.95;;;2.45;;
20711;SDS011;10517;50.742;4.224;2023-05-07T02:41:04;2.75;;;1.98;;
20711;SDS011;10517;50.742;4.224;2023-05-07T02:43:29;5.95;;;2.30;;
20711;SDS011;10517;50.742;4.224;2023-05-07T02:48:31;3.30;;;2.38;;
20711;SDS011;10517;50.742;4.224;2023-05-07T02:50:57;7.57;;;2.90;;
20711;SDS011;10517;50.742;4.224;2023-05-07T02:53:23;7.13;;;1.92;;
20711;SDS011;10517;50.742;4.224;2023-05-07T02:55:55;6.95;;;2.70;;
20711;SDS011;10517;50.742;4.224;2023-05-07T02:58:21;3.92;;;2.65;;
20711;SDS011;10517;50.742;4.224;2023-05-07T03:00:47;4.40;;;2.70;;
20711;SDS011;10517;50.742;4.224;2023-05-07T03:03:13;5.03;;;2.60;;
20711;SDS011;10517;50.742;4.224;2023-05-07T03:05:39;5.28;;;2.17;;
20711;SDS011;10517;50.742;4.224;2023-05-07T03:08:05;3.42;;;2.35;;
20711;SDS011;10517;50.742;4.224;2023-05-07T03:10:31;8.15;;;3.28;;
20711;SDS011;10517;50.742;4.224;2023-05-07T03:12:57;3.22;;;2.10;;
20711;SDS011;10517;50.742;4.224;2023-05-07T03:15:23;3.58;;;2.20;;
20711;SDS011;10517;50.742;4.224;2023-05-07T03:17:48;5.82;;;2.83;;
20711;SDS011;10517;50.742;4.224;2023-05-07T03:20:14;4.68;;;2.40;;
20711;SDS011;10517;50.742;4.224;2023-05-07T03:22:40;5.63;;;2.22;;
20711;SDS011;10517;50.742;4.224;2023-05-07T03:25:06;7.38;;;2.38;;
20711;SDS011;10517;50.742;4.224;2023-05-07T03:27:32;3.70;;;2.40;;
20711;SDS011;10517;50.742;4.224;2023-05-07T03:29:57;5.70;;;2.20;;
20711;SDS011;10517;50.742;4.224;2023-05-07T03:32:23;9.27;;;2.83;;
20711;SDS011;10517;50.742;4.224;2023-05-07T03:34:49;7.50;;;3.20;;
20711;SDS011;10517;50.742;4.224;2023-05-07T03:37:15;4.32;;;2.38;;
20711;SDS011;10517;50.742;4.224;2023-05-07T03:39:40;5.95;;;2.25;;
20711;SDS011;10517;50.742;4.224;2023-05-07T03:42:06;4.43;;;2.42;;
20711;SDS011;10517;50.742;4.224;2023-05-07T03:44:32;7.95;;;3.03;;
20711;SDS011;10517;50.742;4.224;2023-05-07T03:46:57;7.47;;;3.17;;
20711;SDS011;10517;50.742;4.224;2023-05-07T03:49:23;5.10;;;2.83;;
20711;SDS011;10517;50.742;4.224;2023-05-07T03:51:48;4.93;;;2.50;;
20711;SDS011;10517;50.742;4.224;2023-05-07T03:54:14;7.25;;;3.10;;
20711;SDS011;10517;50.742;4.224;2023-05-07T03:56:40;8.85;;;3.53;;
20711;SDS011;10517;50.742;4.224;2023-05-07T03:59:05;4.20;;;3.05;;
20711;SDS011;10517;50.742;4.224;2023-05-07T04:01:31;6.55;;;3.10;;
20711;SDS011;10517;50.742;4.224;2023-05-07T04:03:56;8.13;;;3.00;;
20711;SDS011;10517;50.742;4.224;2023-05-07T04:06:22;9.45;;;3.15;;
20711;SDS011;10517;50.742;4.224;2023-05-07T04:08:48;4.85;;;2.20;;
20711;SDS011;10517;50.742;4.224;2023-05-07T04:11:13;6.03;;;2.90;;
20711;SDS011;10517;50.742;4.224;2023-05-07T04:13:39;4.80;;;2.83;;
20711;SDS011;10517;50.742;4.224;2023-05-07T04:16:05;10.30;;;2.85;;
20711;SDS011;10517;50.742;4.224;2023-05-07T04:18:31;4.22;;;2.42;;
20711;SDS011;10517;50.742;4.224;2023-05-07T04:20:56;5.97;;;3.03;;
20711;SDS011;10517;50.742;4.224;2023-05-07T04:23:22;5.13;;;2.53;;
20711;SDS011;10517;50.742;4.224;2023-05-07T04:25:48;5.18;;;3.17;;
20711;SDS011;10517;50.742;4.224;2023-05-07T04:28:13;9.30;;;3.10;;
20711;SDS011;10517;50.742;4.224;2023-05-07T04:30:39;5.15;;;3.28;;
20711;SDS011;10517;50.742;4.224;2023-05-07T04:33:06;6.80;;;3.25;;
20711;SDS011;10517;50.742;4.224;2023-05-07T04:35:32;5.78;;;2.78;;
20711;SDS011;10517;50.742;4.224;2023-05-07T04:37:58;10.63;;;2.90;;
20711;SDS011;10517;50.742;4.224;2023-05-07T04:40:23;7.38;;;3.38;;
20711;SDS011;10517;50.742;4.224;2023-05-07T04:42:49;5.20;;;2.85;;
20711;SDS011;10517;50.742;4.224;2023-05-07T04:45:15;14.38;;;3.55;;
20711;SDS011;10517;50.742;4.224;2023-05-07T04:47:40;6.95;;;2.75;;
20711;SDS011;10517;50.742;4.224;2023-05-07T04:50:06;7.97;;;3.20;;
20711;SDS011;10517;50.742;4.224;2023-05-07T04:52:33;5.18;;;3.05;;
20711;SDS011;10517;50.742;4.224;2023-05-07T04:54:59;5.72;;;3.00;;
20711;SDS011;10517;50.742;4.224;2023-05-07T04:57:25;6.90;;;3.30;;
20711;SDS011;10517;50.742;4.224;2023-05-07T04:59:52;10.63;;;3.75;;
20711;SDS011;10517;50.742;4.224;2023-05-07T05:02:18;8.65;;;3.90;;
20711;SDS011;10517;50.742;4.224;2023-05-07T05:04:44;9.60;;;4.57;;
20711;SDS011;10517;50.742;4.224;2023-05-07T05:07:09;8.90;;;3.33;;
20711;SDS011;10517;50.742;4.224;2023-05-07T05:09:35;8.95;;;3.10;;
20711;SDS011;10517;50.742;4.224;2023-05-07T05:12:00;5.60;;;3.15;;
20711;SDS011;10517;50.742;4.224;2023-05-07T05:14:26;12.52;;;3.83;;
20711;SDS011;10517;50.742;4.224;2023-05-07T05:16:52;9.25;;;4.10;;
20711;SDS011;10517;50.742;4.224;2023-05-07T05:19:17;8.57;;;3.03;;
20711;SDS011;10517;50.742;4.224;2023-05-07T05:21:43;6.10;;;3.13;;
20711;SDS011;10517;50.742;4.224;2023-05-07T05:24:08;12.40;;;3.50;;
20711;SDS011;10517;50.742;4.224;2023-05-07T05:26:34;8.32;;;3.53;;
20711;SDS011;10517;50.742;4.224;2023-05-07T05:29:00;11.38;;;3.30;;
20711;SDS011;10517;50.742;4.224;2023-05-07T05:31:25;9.02;;;3.00;;
20711;SDS011;10517;50.742;4.224;2023-05-07T05:33:51;5.35;;;2.97;;
20711;SDS011;10517;50.742;4.224;2023-05-07T05:36:17;8.10;;;3.40;;
20711;SDS011;10517;50.742;4.224;2023-05-07T05:38:43;4.30;;;3.08;;
20711;SDS011;10517;50.742;4.224;2023-05-07T05:41:09;10.43;;;4.00;;
20711;SDS011;10517;50.742;4.224;2023-05-07T05:43:35;9.60;;;2.83;;
20711;SDS011;10517;50.742;4.224;2023-05-07T05:46:01;5.93;;;3.20;;
20711;SDS011;10517;50.742;4.224;2023-05-07T05:48:28;9.65;;;3.15;;
20711;SDS011;10517;50.742;4.224;2023-05-07T05:50:54;9.02;;;3.72;;
20711;SDS011;10517;50.742;4.224;2023-05-07T05:53:19;12.02;;;3.85;;
20711;SDS011;10517;50.742;4.224;2023-05-07T05:55:45;13.02;;;3.83;;
20711;SDS011;10517;50.742;4.224;2023-05-07T05:58:11;8.07;;;3.55;;
20711;SDS011;10517;50.742;4.224;2023-05-07T06:00:37;8.90;;;3.22;;
20711;SDS011;10517;50.742;4.224;2023-05-07T06:03:03;8.25;;;3.35;;
20711;SDS011;10517;50.742;4.224;2023-05-07T06:05:28;4.72;;;3.13;;
20711;SDS011;10517;50.742;4.224;2023-05-07T06:07:54;8.45;;;4.22;;
20711;SDS011;10517;50.742;4.224;2023-05-07T06:10:19;8.45;;;4.15;;
20711;SDS011;10517;50.742;4.224;2023-05-07T06:12:45;11.32;;;3.85;;
20711;SDS011;10517;50.742;4.224;2023-05-07T06:15:11;6.53;;;4.05;;
20711;SDS011;10517;50.742;4.224;2023-05-07T06:17:36;11.18;;;3.55;;
20711;SDS011;10517;50.742;4.224;2023-05-07T06:20:02;10.20;;;3.53;;
20711;SDS011;10517;50.742;4.224;2023-05-07T06:22:28;6.60;;;3.40;;
20711;SDS011;10517;50.742;4.224;2023-05-07T06:24:54;6.07;;;3.75;;
20711;SDS011;10517;50.742;4.224;2023-05-07T06:27:19;6.85;;;3.35;;
20711;SDS011;10517;50.742;4.224;2023-05-07T06:29:45;9.02;;;3.72;;
20711;SDS011;10517;50.742;4.224;2023-05-07T06:32:13;7.13;;;3.28;;
20711;SDS011;10517;50.742;4.224;2023-05-07T06:34:39;10.73;;;3.67;;
20711;SDS011;10517;50.742;4.224;2023-05-07T06:37:05;10.10;;;4.10;;
20711;SDS011;10517;50.742;4.224;2023-05-07T06:39:31;8.50;;;3.80;;
20711;SDS011;10517;50.742;4.224;2023-05-07T06:41:57;8.27;;;3.40;;
20711;SDS011;10517;50.742;4.224;2023-05-07T06:44:25;6.35;;;3.40;;
20711;SDS011;10517;50.742;4.224;2023-05-07T06:46:51;8.88;;;3.67;;
20711;SDS011;10517;50.742;4.224;2023-05-07T06:49:16;4.88;;;3.50;;
20711;SDS011;10517;50.742;4.224;2023-05-07T06:51:42;6.45;;;3.72;;
20711;SDS011;10517;50.742;4.224;2023-05-07T06:54:08;5.97;;;3.88;;
20711;SDS011;10517;50.742;4.224;2023-05-07T06:56:33;11.45;;;3.85;;
20711;SDS011;10517;50.742;4.224;2023-05-07T06:59:00;6.80;;;3.60;;
20711;SDS011;10517;50.742;4.224;2023-05-07T07:01:27;8.57;;;3.65;;
20711;SDS011;10517;50.742;4.224;2023-05-07T07:03:53;8.10;;;2.95;;
20711;SDS011;10517;50.742;4.224;2023-05-07T07:06:19;3.60;;;3.03;;
20711;SDS011;10517;50.742;4.224;2023-05-07T07:08:45;5.63;;;3.60;;
20711;SDS011;10517;50.742;4.224;2023-05-07T07:11:10;4.80;;;3.08;;
20711;SDS011;10517;50.742;4.224;2023-05-07T07:13:36;6.80;;;3.70;;
20711;SDS011;10517;50.742;4.224;2023-05-07T07:16:02;9.80;;;3.40;;
20711;SDS011;10517;50.742;4.224;2023-05-07T07:18:28;9.75;;;3.97;;
20711;SDS011;10517;50.742;4.224;2023-05-07T07:20:54;5.13;;;3.10;;
20711;SDS011;10517;50.742;4.224;2023-05-07T07:23:19;5.72;;;3.10;;
20711;SDS011;10517;50.742;4.224;2023-05-07T07:25:45;7.03;;;3.65;;
20711;SDS011;10517;50.742;4.224;2023-05-07T07:28:11;4.78;;;2.80;;
20711;SDS011;10517;50.742;4.224;2023-05-07T07:30:37;8.13;;;3.63;;
20711;SDS011;10517;50.742;4.224;2023-05-07T07:33:02;6.43;;;3.78;;
20711;SDS011;10517;50.742;4.224;2023-05-07T07:35:29;6.28;;;3.35;;
20711;SDS011;10517;50.742;4.224;2023-05-07T07:37:55;7.68;;;3.92;;
20711;SDS011;10517;50.742;4.224;2023-05-07T07:40:20;8.48;;;3.78;;
20711;SDS011;10517;50.742;4.224;2023-05-07T07:42:46;4.55;;;2.88;;
20711;SDS011;10517;50.742;4.224;2023-05-07T07:45:12;5.38;;;3.45;;
20711;SDS011;10517;50.742;4.224;2023-05-07T07:47:38;7.40;;;4.28;;
20711;SDS011;10517;50.742;4.224;2023-05-07T07:50:05;7.20;;;3.25;;
20711;SDS011;10517;50.742;4.224;2023-05-07T07:52:31;4.97;;;3.17;;
20711;SDS011;10517;50.742;4.224;2023-05-07T07:54:57;6.30;;;3.17;;
20711;SDS011;10517;50.742;4.224;2023-05-07T07:57:23;4.28;;;3.33;;
20711;SDS011;10517;50.742;4.224;2023-05-07T07:59:49;7.45;;;2.92;;
20711;SDS011;10517;50.742;4.224;2023-05-07T08:02:15;4.20;;;3.10;;
20711;SDS011;10517;50.742;4.224;2023-05-07T08:04:41;5.78;;;3.38;;
20711;SDS011;10517;50.742;4.224;2023-05-07T08:07:08;7.97;;;2.90;;
20711;SDS011;10517;50.742;4.224;2023-05-07T08:09:37;5.68;;;3.35;;
20711;SDS011;10517;50.742;4.224;2023-05-07T08:12:03;4.85;;;3.00;;
20711;SDS011;10517;50.742;4.224;2023-05-07T08:14:30;9.23;;;3.45;;
20711;SDS011;10517;50.742;4.224;2023-05-07T08:16:56;7.63;;;2.60;;
20711;SDS011;10517;50.742;4.224;2023-05-07T08:19:21;3.78;;;3.03;;
20711;SDS011;10517;50.742;4.224;2023-05-07T08:21:47;5.78;;;3.47;;
20711;SDS011;10517;50.742;4.224;2023-05-07T08:24:15;3.88;;;3.38;;
20711;SDS011;10517;50.742;4.224;2023-05-07T08:26:42;6.55;;;3.60;;
20711;SDS011;10517;50.742;4.224;2023-05-07T08:29:09;6.05;;;3.40;;
20711;SDS011;10517;50.742;4.224;2023-05-07T08:31:35;5.22;;;3.60;;
20711;SDS011;10517;50.742;4.224;2023-05-07T08:34:00;7.13;;;3.08;;
20711;SDS011;10517;50.742;4.224;2023-05-07T08:36:26;9.98;;;3.00;;
20711;SDS011;10517;50.742;4.224;2023-05-07T08:38:52;5.45;;;3.40;;
20711;SDS011;10517;50.742;4.224;2023-05-07T08:41:18;4.95;;;2.90;;
20711;SDS011;10517;50.742;4.224;2023-05-07T08:43:48;8.55;;;2.90;;
20711;SDS011;10517;50.742;4.224;2023-05-07T08:46:19;3.67;;;2.22;;
20711;SDS011;10517;50.742;4.224;2023-05-07T08:48:49;9.60;;;2.88;;
20711;SDS011;10517;50.742;4.224;2023-05-07T08:51:16;4.45;;;2.88;;
20711;SDS011;10517;50.742;4.224;2023-05-07T08:53:45;5.57;;;2.97;;
20711;SDS011;10517;50.742;4.224;2023-05-07T08:56:13;5.50;;;3.08;;
20711;SDS011;10517;50.742;4.224;2023-05-07T08:58:40;5.25;;;3.13;;
20711;SDS011;10517;50.742;4.224;2023-05-07T09:01:10;5.45;;;3.13;;
20711;SDS011;10517;50.742;4.224;2023-05-07T09:03:40;7.18;;;3.10;;
20711;SDS011;10517;50.742;4.224;2023-05-07T09:06:09;5.75;;;2.92;;
20711;SDS011;10517;50.742;4.224;2023-05-07T09:08:35;3.55;;;2.83;;
20711;SDS011;10517;50.742;4.224;2023-05-07T09:11:01;8.18;;;3.75;;
20711;SDS011;10517;50.742;4.224;2023-05-07T09:13:28;4.30;;;3.22;;
20711;SDS011;10517;50.742;4.224;2023-05-07T09:15:54;7.05;;;3.28;;
20711;SDS011;10517;50.742;4.224;2023-05-07T09:18:20;5.65;;;3.10;;
20711;SDS011;10517;50.742;4.224;2023-05-07T09:20:46;6.80;;;4.18;;
20711;SDS011;10517;50.742;4.224;2023-05-07T09:23:11;6.43;;;3.70;;
20711;SDS011;10517;50.742;4.224;2023-05-07T09:25:37;5.13;;;3.30;;
20711;SDS011;10517;50.742;4.224;2023-05-07T09:28:04;7.70;;;3.15;;
20711;SDS011;10517;50.742;4.224;2023-05-07T09:30:32;5.60;;;3.13;;
20711;SDS011;10517;50.742;4.224;2023-05-07T09:32:59;4.22;;;3.38;;
20711;SDS011;10517;50.742;4.224;2023-05-07T09:35:25;5.22;;;3.35;;
20711;SDS011;10517;50.742;4.224;2023-05-07T09:37:55;7.90;;;3.03;;
20711;SDS011;10517;50.742;4.224;2023-05-07T09:40:22;9.70;;;3.10;;
20711;SDS011;10517;50.742;4.224;2023-05-07T09:42:49;5.60;;;3.08;;
20711;SDS011;10517;50.742;4.224;2023-05-07T09:45:16;4.43;;;3.17;;
20711;SDS011;10517;50.742;4.224;2023-05-07T09:47:46;5.32;;;3.28;;
20711;SDS011;10517;50.742;4.224;2023-05-07T09:50:14;9.30;;;3.72;;
20711;SDS011;10517;50.742;4.224;2023-05-07T09:52:41;10.20;;;3.83;;
20711;SDS011;10517;50.742;4.224;2023-05-07T09:55:08;5.93;;;3.42;;
20711;SDS011;10517;50.742;4.224;2023-05-07T09:57:35;5.28;;;3.22;;
20711;SDS011;10517;50.742;4.224;2023-05-07T10:00:02;6.90;;;3.30;;
20711;SDS011;10517;50.742;4.224;2023-05-07T10:02:33;7.78;;;3.45;;
20711;SDS011;10517;50.742;4.224;2023-05-07T10:05:01;6.00;;;2.97;;
20711;SDS011;10517;50.742;4.224;2023-05-07T10:07:28;5.78;;;3.60;;
20711;SDS011;10517;50.742;4.224;2023-05-07T10:09:55;4.57;;;3.00;;
20711;SDS011;10517;50.742;4.224;2023-05-07T10:12:20;5.57;;;2.83;;
20711;SDS011;10517;50.742;4.224;2023-05-07T10:14:46;5.70;;;3.35;;
20711;SDS011;10517;50.742;4.224;2023-05-07T10:17:13;5.32;;;3.17;;
20711;SDS011;10517;50.742;4.224;2023-05-07T10:19:43;4.53;;;2.70;;
20711;SDS011;10517;50.742;4.224;2023-05-07T10:22:09;6.45;;;2.97;;
20711;SDS011;10517;50.742;4.224;2023-05-07T10:24:36;4.57;;;2.65;;
20711;SDS011;10517;50.742;4.224;2023-05-07T10:27:04;4.00;;;2.78;;
20711;SDS011;10517;50.742;4.224;2023-05-07T10:29:39;3.65;;;2.42;;
20711;SDS011;10517;50.742;4.224;2023-05-07T10:32:33;4.55;;;3.13;;
20711;SDS011;10517;50.742;4.224;2023-05-07T10:35:06;4.25;;;2.65;;
20711;SDS011;10517;50.742;4.224;2023-05-07T10:37:37;6.07;;;3.28;;
20711;SDS011;10517;50.742;4.224;2023-05-07T10:40:03;11.15;;;4.35;;
20711;SDS011;10517;50.742;4.224;2023-05-07T10:42:29;5.75;;;2.90;;
20711;SDS011;10517;50.742;4.224;2023-05-07T10:44:55;5.78;;;3.13;;
20711;SDS011;10517;50.742;4.224;2023-05-07T10:47:21;6.13;;;2.97;;
20711;SDS011;10517;50.742;4.224;2023-05-07T10:54:39;10.40;;;3.40;;
20711;SDS011;10517;50.742;4.224;2023-05-07T10:59:55;5.82;;;2.75;;
20711;SDS011;10517;50.742;4.224;2023-05-07T11:02:21;4.63;;;3.03;;
20711;SDS011;10517;50.742;4.224;2023-05-07T11:05:18;4.68;;;2.63;;
20711;SDS011;10517;50.742;4.224;2023-05-07T11:07:54;3.15;;;2.40;;
20711;SDS011;10517;50.742;4.224;2023-05-07T11:10:21;4.85;;;2.92;;
20711;SDS011;10517;50.742;4.224;2023-05-07T11:12:50;4.20;;;2.72;;
20711;SDS011;10517;50.742;4.224;2023-05-07T11:15:33;3.60;;;2.08;;
20711;SDS011;10517;50.742;4.224;2023-05-07T11:17:59;2.08;;;1.48;;
20711;SDS011;10517;50.742;4.224;2023-05-07T11:26:05;2.50;;;1.15;;
20711;SDS011;10517;50.742;4.224;2023-05-07T11:28:41;2.08;;;1.08;;
20711;SDS011;10517;50.742;4.224;2023-05-07T11:31:08;1.27;;;0.82;;
20711;SDS011;10517;50.742;4.224;2023-05-07T11:33:35;1.50;;;1.38;;
20711;SDS011;10517;50.742;4.224;2023-05-07T11:36:03;2.83;;;1.50;;
20711;SDS011;10517;50.742;4.224;2023-05-07T11:38:29;1.85;;;1.63;;
20711;SDS011;10517;50.742;4.224;2023-05-07T11:40:56;1.23;;;1.10;;
20711;SDS011;10517;50.742;4.224;2023-05-07T11:43:23;4.60;;;1.95;;
20711;SDS011;10517;50.742;4.224;2023-05-07T11:45:49;6.03;;;1.70;;
20711;SDS011;10517;50.742;4.224;2023-05-07T11:48:16;4.20;;;2.15;;
20711;SDS011;10517;50.742;4.224;2023-05-07T11:50:59;2.42;;;2.22;;
20711;SDS011;10517;50.742;4.224;2023-05-07T11:53:27;4.70;;;2.50;;
20711;SDS011;10517;50.742;4.224;2023-05-07T11:55:59;8.38;;;3.35;;
20711;SDS011;10517;50.742;4.224;2023-05-07T11:58:25;7.05;;;3.45;;
20711;SDS011;10517;50.742;4.224;2023-05-07T12:00:51;7.10;;;4.15;;
20711;SDS011;10517;50.742;4.224;2023-05-07T12:03:18;6.05;;;3.40;;
20711;SDS011;10517;50.742;4.224;2023-05-07T12:05:44;6.28;;;4.38;;
20711;SDS011;10517;50.742;4.224;2023-05-07T12:08:14;8.77;;;4.88;;
20711;SDS011;10517;50.742;4.224;2023-05-07T12:10:41;7.68;;;4.38;;
20711;SDS011;10517;50.742;4.224;2023-05-07T12:13:17;6.63;;;3.95;;
20711;SDS011;10517;50.742;4.224;2023-05-07T12:15:43;7.80;;;4.28;;
20711;SDS011;10517;50.742;4.224;2023-05-07T12:18:09;6.93;;;4.28;;
20711;SDS011;10517;50.742;4.224;2023-05-07T12:20:36;4.82;;;4.25;;
20711;SDS011;10517;50.742;4.224;2023-05-07T12:23:02;8.60;;;4.68;;
20711;SDS011;10517;50.742;4.224;2023-05-07T12:25:31;6.53;;;5.20;;
20711;SDS011;10517;50.742;4.224;2023-05-07T12:28:00;8.38;;;4.95;;
20711;SDS011;10517;50.742;4.224;2023-05-07T12:30:26;6.15;;;4.90;;
20711;SDS011;10517;50.742;4.224;2023-05-07T12:32:52;5.85;;;4.68;;
20711;SDS011;10517;50.742;4.224;2023-05-07T12:35:28;7.18;;;4.90;;
20711;SDS011;10517;50.742;4.224;2023-05-07T12:37:58;7.68;;;5.28;;
20711;SDS011;10517;50.742;4.224;2023-05-07T12:40:34;5.82;;;4.88;;
20711;SDS011;10517;50.742;4.224;2023-05-07T12:43:20;7.05;;;4.97;;
20711;SDS011;10517;50.742;4.224;2023-05-07T12:45:49;6.47;;;5.18;;
20711;SDS011;10517;50.742;4.224;2023-05-07T12:48:15;8.80;;;4.68;;
20711;SDS011;10517;50.742;4.224;2023-05-07T12:50:41;8.68;;;5.82;;
20711;SDS011;10517;50.742;4.224;2023-05-07T12:53:08;6.82;;;4.70;;
20711;SDS011;10517;50.742;4.224;2023-05-07T12:55:43;5.80;;;4.72;;
20711;SDS011;10517;50.742;4.224;2023-05-07T13:00:47;7.43;;;4.88;;
20711;SDS011;10517;50.742;4.224;2023-05-07T13:03:20;6.90;;;4.63;;
20711;SDS011;10517;50.742;4.224;2023-05-07T13:05:48;5.00;;;3.80;;
20711;SDS011;10517;50.742;4.224;2023-05-07T13:08:25;6.47;;;4.00;;
20711;SDS011;10517;50.742;4.224;2023-05-07T13:10:56;4.30;;;3.75;;
20711;SDS011;10517;50.742;4.224;2023-05-07T13:13:22;7.45;;;4.15;;
20711;SDS011;10517;50.742;4.224;2023-05-07T13:15:48;5.20;;;4.13;;
20711;SDS011;10517;50.742;4.224;2023-05-07T13:18:14;5.72;;;3.88;;
20711;SDS011;10517;50.742;4.224;2023-05-07T13:20:39;4.15;;;3.75;;
20711;SDS011;10517;50.742;4.224;2023-05-07T13:23:05;4.05;;;3.65;;
20711;SDS011;10517;50.742;4.224;2023-05-07T13:25:31;6.40;;;3.92;;
20711;SDS011;10517;50.742;4.224;2023-05-07T13:27:57;5.90;;;4.10;;
20711;SDS011;10517;50.742;4.224;2023-05-07T13:30:23;5.13;;;4.45;;
20711;SDS011;10517;50.742;4.224;2023-05-07T13:32:48;7.88;;;4.15;;
20711;SDS011;10517;50.742;4.224;2023-05-07T13:35:15;6.20;;;4.50;;
20711;SDS011;10517;50.742;4.224;2023-05-07T13:37:41;4.35;;;3.95;;
20711;SDS011;10517;50.742;4.224;2023-05-07T13:40:07;5.43;;;4.25;;
20711;SDS011;10517;50.742;4.224;2023-05-07T13:42:33;6.65;;;4.53;;
20711;SDS011;10517;50.742;4.224;2023-05-07T13:44:58;6.55;;;5.35;;
20711;SDS011;10517;50.742;4.224;2023-05-07T13:47:24;6.82;;;5.07;;
20711;SDS011;10517;50.742;4.224;2023-05-07T13:49:50;4.47;;;4.07;;
20711;SDS011;10517;50.742;4.224;2023-05-07T13:52:16;7.38;;;4.75;;
20711;SDS011;10517;50.742;4.224;2023-05-07T13:54:42;6.05;;;4.82;;
20711;SDS011;10517;50.742;4.224;2023-05-07T13:57:08;6.22;;;4.65;;
20711;SDS011;10517;50.742;4.224;2023-05-07T13:59:33;6.18;;;5.55;;
20711;SDS011;10517;50.742;4.224;2023-05-07T14:01:59;5.88;;;5.05;;
20711;SDS011;10517;50.742;4.224;2023-05-07T14:04:25;7.97;;;5.47;;
20711;SDS011;10517;50.742;4.224;2023-05-07T14:06:50;6.10;;;4.60;;
20711;SDS011;10517;50.742;4.224;2023-05-07T14:09:16;4.80;;;3.45;;
20711;SDS011;10517;50.742;4.224;2023-05-07T14:11:42;5.38;;;3.63;;
20711;SDS011;10517;50.742;4.224;2023-05-07T14:14:08;5.20;;;3.60;;
20711;SDS011;10517;50.742;4.224;2023-05-07T14:16:35;4.88;;;3.90;;
20711;SDS011;10517;50.742;4.224;2023-05-07T14:19:02;5.55;;;4.18;;
20711;SDS011;10517;50.742;4.224;2023-05-07T14:21:27;7.20;;;4.05;;
20711;SDS011;10517;50.742;4.224;2023-05-07T14:23:53;6.32;;;4.30;;
20711;SDS011;10517;50.742;4.224;2023-05-07T14:26:19;3.60;;;3.28;;
20711;SDS011;10517;50.742;4.224;2023-05-07T14:28:45;3.38;;;3.08;;
20711;SDS011;10517;50.742;4.224;2023-05-07T14:31:11;4.80;;;3.00;;
20711;SDS011;10517;50.742;4.224;2023-05-07T14:33:37;7.28;;;2.85;;
20711;SDS011;10517;50.742;4.224;2023-05-07T14:36:03;4.05;;;3.28;;
20711;SDS011;10517;50.742;4.224;2023-05-07T14:38:29;5.25;;;3.00;;
20711;SDS011;10517;50.742;4.224;2023-05-07T14:40:57;3.13;;;2.90;;
20711;SDS011;10517;50.742;4.224;2023-05-07T14:43:23;4.07;;;2.80;;
20711;SDS011;10517;50.742;4.224;2023-05-07T14:45:49;3.30;;;3.00;;
20711;SDS011;10517;50.742;4.224;2023-05-07T14:48:15;3.40;;;2.60;;
20711;SDS011;10517;50.742;4.224;2023-05-07T14:50:41;4.50;;;3.13;;
20711;SDS011;10517;50.742;4.224;2023-05-07T14:53:07;3.05;;;2.78;;
20711;SDS011;10517;50.742;4.224;2023-05-07T14:55:33;3.80;;;3.03;;
20711;SDS011;10517;50.742;4.224;2023-05-07T14:57:59;7.35;;;3.55;;
20711;SDS011;10517;50.742;4.224;2023-05-07T15:00:25;8.20;;;3.20;;
20711;SDS011;10517;50.742;4.224;2023-05-07T15:02:51;4.65;;;2.97;;
20711;SDS011;10517;50.742;4.224;2023-05-07T15:05:16;3.40;;;2.95;;